createdAt,value
2019-03-16T00:00:35.656Z,34.53
2019-03-16T00:03:04.302Z,34.18
2019-03-16T00:05:32.928Z,33.90
2019-03-16T00:08:01.611Z,34.50
2019-03-16T00:10:30.263Z,34.70
2019-03-16T00:12:59.054Z,34.13
2019-03-16T00:15:27.625Z,35.05
2019-03-16T00:17:56.259Z,34.65
2019-03-16T00:20:24.932Z,36.05
2019-03-16T00:22:53.568Z,35.65
2019-03-16T00:25:22.242Z,34.27
2019-03-16T00:27:50.889Z,34.10
2019-03-16T00:30:19.506Z,33.60
2019-03-16T00:32:48.167Z,34.60
2019-03-16T00:35:16.807Z,35.48
2019-03-16T00:37:46.145Z,35.92
2019-03-16T00:40:14.780Z,34.98
2019-03-16T00:42:43.478Z,35.35
2019-03-16T00:45:12.811Z,34.05
2019-03-16T00:47:41.451Z,35.08
2019-03-16T00:50:13.828Z,35.58
2019-03-16T00:52:42.405Z,34.88
2019-03-16T00:55:11.185Z,35.83
2019-03-16T00:57:39.818Z,35.25
2019-03-16T01:00:16.575Z,34.90
2019-03-16T01:02:45.153Z,35.15
2019-03-16T01:05:14.798Z,36.03
2019-03-16T01:07:43.477Z,35.30
2019-03-16T01:10:12.058Z,34.80
2019-03-16T01:12:40.759Z,34.08
2019-03-16T01:15:13.262Z,34.75
2019-03-16T01:17:41.841Z,33.80
2019-03-16T01:20:11.928Z,35.35
2019-03-16T01:22:40.561Z,35.03
2019-03-16T01:25:11.062Z,35.10
2019-03-16T01:27:39.691Z,34.70
2019-03-16T01:30:17.331Z,34.05
2019-03-16T01:32:45.969Z,34.78
2019-03-16T01:35:14.611Z,34.27
2019-03-16T01:37:43.278Z,34.40
2019-03-16T01:40:11.922Z,35.33
2019-03-16T01:42:40.624Z,33.60
2019-03-16T01:45:10.679Z,34.23
2019-03-16T01:47:39.332Z,35.52
2019-03-16T01:50:09.902Z,34.08
2019-03-16T01:52:38.487Z,33.80
2019-03-16T01:55:09.169Z,34.67
2019-03-16T01:57:37.816Z,36.17
2019-03-16T02:00:09.812Z,34.60
2019-03-16T02:02:38.400Z,34.03
2019-03-16T02:05:07.540Z,35.10
2019-03-16T02:07:36.176Z,34.95
2019-03-16T02:10:05.828Z,35.83
2019-03-16T02:12:34.463Z,34.60
2019-03-16T02:15:03.154Z,33.25
2019-03-16T02:17:31.711Z,35.38
2019-03-16T02:20:00.534Z,33.38
2019-03-16T02:22:29.159Z,33.67
2019-03-16T02:24:57.819Z,34.55
2019-03-16T02:27:26.489Z,33.50
2019-03-16T02:29:55.115Z,33.10
2019-03-16T02:32:23.814Z,35.08
2019-03-16T02:34:52.464Z,35.17
2019-03-16T02:37:21.092Z,35.85
2019-03-16T02:39:49.697Z,35.68
2019-03-16T02:42:18.265Z,34.92
2019-03-16T02:44:46.972Z,36.88
2019-03-16T02:47:15.620Z,36.33
2019-03-16T02:49:44.195Z,36.30
2019-03-16T02:52:12.797Z,35.52
2019-03-16T02:54:41.344Z,36.05
2019-03-16T02:57:09.899Z,37.48
2019-03-16T02:59:38.552Z,36.45
2019-03-16T03:02:07.168Z,36.90
2019-03-16T03:04:35.843Z,36.10
2019-03-16T03:07:04.414Z,36.15
2019-03-16T03:09:33.113Z,36.93
2019-03-16T03:12:01.756Z,35.83
2019-03-16T03:14:30.502Z,35.52
2019-03-16T03:16:59.100Z,36.40
2019-03-16T03:19:27.740Z,36.60
2019-03-16T03:21:56.420Z,36.88
2019-03-16T03:24:24.996Z,37.78
2019-03-16T03:26:53.696Z,36.33
2019-03-16T03:29:22.271Z,35.10
2019-03-16T03:31:50.846Z,36.93
2019-03-16T03:34:19.547Z,35.75
2019-03-16T03:36:48.165Z,35.25
2019-03-16T03:39:16.863Z,36.73
2019-03-16T03:41:45.807Z,36.42
2019-03-16T03:44:14.383Z,36.98
2019-03-16T03:46:43.064Z,37.15
2019-03-16T03:49:11.697Z,36.58
2019-03-16T03:51:40.308Z,35.85
2019-03-16T03:54:08.795Z,34.27
2019-03-16T03:56:37.357Z,37.55
2019-03-16T03:59:06.048Z,35.63
2019-03-16T04:01:34.481Z,37.75
2019-03-16T04:04:15.353Z,34.60
2019-03-16T04:06:33.395Z,34.88
2019-03-16T04:09:02.020Z,35.95
2019-03-16T04:11:30.709Z,36.83
2019-03-16T04:13:59.283Z,34.98
2019-03-16T04:16:27.977Z,35.55
2019-03-16T04:18:56.635Z,37.42
2019-03-16T04:21:25.133Z,36.10
2019-03-16T04:23:53.756Z,37.73
2019-03-16T04:26:22.305Z,36.95
2019-03-16T04:28:50.927Z,36.77
2019-03-16T04:31:19.585Z,35.35
2019-03-16T04:33:48.223Z,35.38
2019-03-16T04:36:16.907Z,35.50
2019-03-16T04:38:45.536Z,35.08
2019-03-16T04:41:14.172Z,35.35
2019-03-16T04:43:42.929Z,34.73
2019-03-16T04:46:11.574Z,33.80
2019-03-16T04:48:40.169Z,35.23
2019-03-16T04:51:08.671Z,35.70
2019-03-16T04:53:37.289Z,34.78
2019-03-16T04:56:05.933Z,34.35
2019-03-16T04:58:34.494Z,35.13
2019-03-16T05:01:03.117Z,34.48
2019-03-16T05:03:31.752Z,34.43
2019-03-16T05:06:00.373Z,35.20
2019-03-16T05:08:28.934Z,35.63
2019-03-16T05:10:57.525Z,36.33
2019-03-16T05:13:26.503Z,35.90
2019-03-16T05:15:55.068Z,35.55
2019-03-16T05:18:23.671Z,35.40
2019-03-16T05:20:52.250Z,36.88
2019-03-16T05:23:20.899Z,38.13
2019-03-16T05:25:49.586Z,37.88
2019-03-16T05:28:18.153Z,40.75
2019-03-16T05:30:46.708Z,39.83
2019-03-16T05:33:15.382Z,38.63
2019-03-16T05:35:44.026Z,38.02
2019-03-16T05:38:12.673Z,35.90
2019-03-16T05:40:41.329Z,37.90
2019-03-16T05:43:09.964Z,38.23
2019-03-16T05:45:38.641Z,37.45
2019-03-16T05:48:07.232Z,37.05
2019-03-16T05:50:35.795Z,37.15
2019-03-16T05:53:04.480Z,37.05
2019-03-16T05:55:33.105Z,36.53
2019-03-16T05:58:01.811Z,35.13
2019-03-16T06:00:30.460Z,37.20
2019-03-16T06:02:59.109Z,37.93
2019-03-16T06:05:27.764Z,34.45
2019-03-16T06:07:56.355Z,37.90
2019-03-16T06:10:25.040Z,38.33
2019-03-16T06:12:53.619Z,37.67
2019-03-16T06:15:22.272Z,37.67
2019-03-16T06:17:50.895Z,37.35
2019-03-16T06:20:19.469Z,37.80
2019-03-16T06:22:48.152Z,38.00
2019-03-16T06:25:16.797Z,38.02
2019-03-16T06:27:45.452Z,37.53
2019-03-16T06:30:15.618Z,36.90
2019-03-16T06:32:44.254Z,36.63
2019-03-16T06:35:24.043Z,36.93
2019-03-16T06:37:43.168Z,36.90
2019-03-16T06:40:12.226Z,37.67
2019-03-16T06:42:40.919Z,39.08
2019-03-16T06:45:11.050Z,38.38
2019-03-16T06:47:39.731Z,42.27
2019-03-16T06:50:15.773Z,46.23
2019-03-16T06:52:44.394Z,44.10
2019-03-16T06:55:13.033Z,43.33
2019-03-16T06:57:41.629Z,42.62
2019-03-16T07:00:17.983Z,45.25
2019-03-16T07:02:46.638Z,45.80
2019-03-16T07:05:15.240Z,46.73
2019-03-16T07:07:43.888Z,47.83
2019-03-16T07:10:13.638Z,45.75
2019-03-16T07:12:42.358Z,45.65
2019-03-16T07:15:12.214Z,47.15
2019-03-16T07:17:40.816Z,41.05
2019-03-16T07:20:11.178Z,43.70
2019-03-16T07:22:39.765Z,44.10
2019-03-16T07:25:08.458Z,42.73
2019-03-16T07:27:37.104Z,42.40
2019-03-16T07:30:11.426Z,46.65
2019-03-16T07:32:40.069Z,45.73
2019-03-16T07:35:08.810Z,47.65
2019-03-16T07:37:37.354Z,47.03
2019-03-16T07:40:08.898Z,47.58
2019-03-16T07:42:37.568Z,48.13
2019-03-16T07:45:09.387Z,45.65
2019-03-16T07:47:38.090Z,48.90
2019-03-16T07:50:08.826Z,47.65
2019-03-16T07:52:37.509Z,46.65
2019-03-16T07:55:08.146Z,46.40
2019-03-16T07:57:40.525Z,46.75
2019-03-16T08:00:11.961Z,44.93
2019-03-16T08:02:40.596Z,47.20
2019-03-16T08:05:18.195Z,45.90
2019-03-16T08:07:39.621Z,44.73
2019-03-16T08:10:10.612Z,47.38
2019-03-16T08:12:39.286Z,47.08
2019-03-16T08:15:09.534Z,46.63
2019-03-16T08:17:38.203Z,47.75
2019-03-16T08:20:09.095Z,48.52
2019-03-16T08:22:37.798Z,49.27
2019-03-16T08:25:07.600Z,48.23
2019-03-16T08:27:36.236Z,47.75
2019-03-16T08:30:08.121Z,47.38
2019-03-16T08:32:36.758Z,49.55
2019-03-16T08:35:06.737Z,51.60
2019-03-16T08:37:35.420Z,52.43
2019-03-16T08:40:06.382Z,51.68
2019-03-16T08:42:35.271Z,52.10
2019-03-16T08:45:08.869Z,52.38
2019-03-16T08:47:37.552Z,51.90
2019-03-16T08:50:08.041Z,51.83
2019-03-16T08:52:36.666Z,52.15
2019-03-16T08:55:07.241Z,50.40
2019-03-16T08:57:35.827Z,51.15
2019-03-16T09:00:07.368Z,50.63
2019-03-16T09:02:36.028Z,51.20
2019-03-16T09:05:06.022Z,48.95
2019-03-16T09:07:34.515Z,50.73
2019-03-16T09:10:03.203Z,51.00
2019-03-16T09:12:31.844Z,53.00
2019-03-16T09:15:00.526Z,52.23
2019-03-16T09:17:29.211Z,51.70
2019-03-16T09:19:57.864Z,49.85
2019-03-16T09:22:29.513Z,49.30
2019-03-16T09:24:56.773Z,53.78
2019-03-16T09:27:31.073Z,51.65
2019-03-16T09:29:55.702Z,51.68
2019-03-16T09:32:24.345Z,53.45
2019-03-16T09:34:55.518Z,52.27
2019-03-16T09:37:24.144Z,52.97
2019-03-16T09:39:52.843Z,52.45
2019-03-16T09:42:21.501Z,50.17
2019-03-16T09:44:50.153Z,50.45
2019-03-16T09:47:18.816Z,51.00
2019-03-16T09:49:47.438Z,49.10
2019-03-16T09:52:16.070Z,50.67
2019-03-16T09:54:44.704Z,51.55
2019-03-16T09:57:13.352Z,49.42
2019-03-16T09:59:42.017Z,52.70
2019-03-16T10:02:10.669Z,52.15
2019-03-16T10:04:39.366Z,52.23
2019-03-16T10:07:08.010Z,52.05
2019-03-16T10:09:36.647Z,54.73
2019-03-16T10:12:05.333Z,51.95
2019-03-16T10:14:37.022Z,52.70
2019-03-16T10:17:04.198Z,50.43
2019-03-16T10:19:32.834Z,50.50
2019-03-16T10:22:01.471Z,53.90
2019-03-16T10:24:30.086Z,51.60
2019-03-16T10:26:59.638Z,52.58
2019-03-16T10:29:28.217Z,49.42
2019-03-16T10:31:56.790Z,49.42
2019-03-16T10:34:25.439Z,49.85
2019-03-16T10:36:54.103Z,47.45
2019-03-16T10:39:22.751Z,48.23
2019-03-16T10:41:51.446Z,48.42
2019-03-16T10:44:20.107Z,47.98
2019-03-16T10:46:48.758Z,48.50
2019-03-16T10:49:17.425Z,48.42
2019-03-16T10:51:46.870Z,47.13
2019-03-16T10:54:15.561Z,49.27
2019-03-16T10:56:44.217Z,49.38
2019-03-16T10:59:12.726Z,48.92
2019-03-16T11:01:41.412Z,46.33
2019-03-16T11:04:10.083Z,48.38
2019-03-16T11:06:38.771Z,48.33
2019-03-16T11:09:07.404Z,48.05
2019-03-16T11:11:36.054Z,51.00
2019-03-16T11:14:04.952Z,52.23
2019-03-16T11:16:33.606Z,49.53
2019-03-16T11:19:02.308Z,50.85
2019-03-16T11:21:30.942Z,49.00
2019-03-16T11:23:59.518Z,49.73
2019-03-16T11:26:28.125Z,48.75
2019-03-16T11:29:04.536Z,46.18
2019-03-16T11:31:27.092Z,52.83
2019-03-16T11:33:55.742Z,56.23
2019-03-16T11:36:24.349Z,55.70
2019-03-16T11:38:52.931Z,52.98
2019-03-16T11:41:21.570Z,51.77
2019-03-16T11:43:50.178Z,54.48
2019-03-16T11:46:18.827Z,52.93
2019-03-16T11:48:47.517Z,53.17
2019-03-16T11:51:16.084Z,53.73
2019-03-16T11:53:44.750Z,51.95
2019-03-16T11:56:18.331Z,51.60
2019-03-16T11:58:43.663Z,51.33
2019-03-16T12:01:12.363Z,51.23
2019-03-16T12:03:40.934Z,52.38
2019-03-16T12:06:09.598Z,51.45
2019-03-16T12:08:39.716Z,51.68
2019-03-16T12:11:08.556Z,50.98
2019-03-16T12:13:37.266Z,50.90
2019-03-16T12:16:05.906Z,50.08
2019-03-16T12:18:41.771Z,53.68
2019-03-16T12:21:10.445Z,53.33
2019-03-16T12:23:39.021Z,50.25
2019-03-16T12:26:10.605Z,51.90
2019-03-16T12:28:39.169Z,52.30
2019-03-16T12:31:07.764Z,51.35
2019-03-16T12:33:36.452Z,50.78
2019-03-16T12:36:05.017Z,50.03
2019-03-16T12:38:34.018Z,49.08
2019-03-16T12:41:02.579Z,50.98
2019-03-16T12:43:31.225Z,52.23
2019-03-16T12:45:59.930Z,52.27
2019-03-16T12:48:28.547Z,51.98
2019-03-16T12:50:57.100Z,53.28
2019-03-16T12:53:25.746Z,53.95
2019-03-16T12:55:54.400Z,54.93
2019-03-16T12:58:23.078Z,54.55
2019-03-16T13:00:51.653Z,54.88
2019-03-16T13:03:20.347Z,55.40
2019-03-16T13:05:48.991Z,52.67
2019-03-16T13:08:17.573Z,53.52
2019-03-16T13:10:46.387Z,54.65
2019-03-16T13:13:15.029Z,52.67
2019-03-16T13:15:43.675Z,52.80
2019-03-16T13:18:12.313Z,55.73
2019-03-16T13:20:40.906Z,53.78
2019-03-16T13:23:09.626Z,54.63
2019-03-16T13:25:38.269Z,52.88
2019-03-16T13:28:06.970Z,56.53
2019-03-16T13:30:35.787Z,51.45
2019-03-16T13:33:04.350Z,49.98
2019-03-16T13:35:32.936Z,51.63
2019-03-16T13:38:01.518Z,51.05
2019-03-16T13:40:30.212Z,51.45
2019-03-16T13:42:58.859Z,50.88
2019-03-16T13:45:27.505Z,48.87
2019-03-16T13:47:56.195Z,47.75
2019-03-16T13:50:24.847Z,48.42
2019-03-16T13:52:53.856Z,48.45
2019-03-16T13:55:22.417Z,46.00
2019-03-16T13:57:51.056Z,47.60
2019-03-16T14:00:23.084Z,47.58
2019-03-16T14:02:51.740Z,46.18
2019-03-16T14:05:20.309Z,46.92
2019-03-16T14:07:48.914Z,44.35
2019-03-16T14:10:29.326Z,44.33
2019-03-16T14:12:57.988Z,43.48
2019-03-16T14:15:26.569Z,43.10
2019-03-16T14:17:57.874Z,42.88
2019-03-16T14:20:25.491Z,43.42
2019-03-16T14:22:54.574Z,43.30
2019-03-16T14:25:23.231Z,43.13
2019-03-16T14:27:51.878Z,42.65
2019-03-16T14:30:39.379Z,41.70
2019-03-16T14:32:51.491Z,41.45
2019-03-16T14:35:20.131Z,41.75
2019-03-16T14:37:48.794Z,39.73
2019-03-16T14:40:17.465Z,42.20
2019-03-16T14:42:46.150Z,41.02
2019-03-16T14:45:16.099Z,39.48
2019-03-16T14:47:44.754Z,38.98
2019-03-16T14:50:19.348Z,39.30
2019-03-16T14:52:48.009Z,39.67
2019-03-16T14:55:16.698Z,37.78
2019-03-16T14:57:45.344Z,38.63
2019-03-16T15:00:15.848Z,39.08
2019-03-16T15:02:46.290Z,39.75
2019-03-16T15:05:14.743Z,39.65
2019-03-16T15:07:43.388Z,37.83
2019-03-16T15:10:15.890Z,38.02
2019-03-16T15:12:44.537Z,38.50
2019-03-16T15:15:23.503Z,39.53
2019-03-16T15:17:52.087Z,38.05
2019-03-16T15:20:20.692Z,38.38
2019-03-16T15:22:49.344Z,39.65
2019-03-16T15:25:17.976Z,38.42
2019-03-16T15:27:46.658Z,37.73
2019-03-16T15:30:19.413Z,36.13
2019-03-16T15:32:48.419Z,38.40
2019-03-16T15:35:17.052Z,38.83
2019-03-16T15:37:45.659Z,37.67
2019-03-16T15:40:15.523Z,38.45
2019-03-16T15:42:44.175Z,38.00
2019-03-16T15:45:18.712Z,38.40
2019-03-16T15:47:47.361Z,38.67
2019-03-16T15:50:16.006Z,38.13
2019-03-16T15:52:44.684Z,38.50
2019-03-16T15:55:13.326Z,38.38
2019-03-16T15:57:42.811Z,39.18
2019-03-16T16:00:17.029Z,39.90
2019-03-16T16:02:45.732Z,38.67
2019-03-16T16:05:14.359Z,40.17
2019-03-16T16:07:43.012Z,39.40
2019-03-16T16:10:17.454Z,40.03
2019-03-16T16:12:46.087Z,37.90
2019-03-16T16:15:14.786Z,37.83
2019-03-16T16:17:43.370Z,40.25
2019-03-16T16:20:17.157Z,40.67
2019-03-16T16:22:45.778Z,40.38
2019-03-16T16:25:14.812Z,40.63
2019-03-16T16:27:43.504Z,42.10
2019-03-16T16:30:16.827Z,41.30
2019-03-16T16:32:45.451Z,41.73
2019-03-16T16:35:15.144Z,40.30
2019-03-16T16:37:43.789Z,41.40
2019-03-16T16:40:16.789Z,40.70
2019-03-16T16:42:45.445Z,40.98
2019-03-16T16:45:15.393Z,39.73
2019-03-16T16:47:44.056Z,40.55
2019-03-16T16:50:22.851Z,42.50
2019-03-16T16:52:51.553Z,41.80
2019-03-16T16:55:20.194Z,42.00
2019-03-16T16:57:48.833Z,42.93
2019-03-16T17:00:21.631Z,42.30
2019-03-16T17:02:50.256Z,42.15
2019-03-16T17:05:18.963Z,42.33
2019-03-16T17:07:47.611Z,40.55
2019-03-16T17:10:16.968Z,43.15
2019-03-16T17:12:45.646Z,45.33
2019-03-16T17:15:17.059Z,44.48
2019-03-16T17:17:45.542Z,43.17
2019-03-16T17:20:15.375Z,44.45
2019-03-16T17:22:44.039Z,44.63
2019-03-16T17:25:13.726Z,44.95
2019-03-16T17:27:42.369Z,47.75
2019-03-16T17:30:14.840Z,48.20
2019-03-16T17:32:43.487Z,46.70
2019-03-16T17:35:12.171Z,49.05
2019-03-16T17:37:40.816Z,50.83
2019-03-16T17:40:14.381Z,53.58
2019-03-16T17:42:43.074Z,54.48
2019-03-16T17:45:12.995Z,51.75
2019-03-16T17:47:41.717Z,50.48
2019-03-16T17:50:11.872Z,48.42
2019-03-16T17:52:40.507Z,48.75
2019-03-16T17:55:16.367Z,43.33
2019-03-16T17:57:45.652Z,46.73
2019-03-16T18:00:16.181Z,44.90
2019-03-16T18:02:51.720Z,45.08
2019-03-16T18:05:16.052Z,47.70
2019-03-16T18:07:44.667Z,47.78
2019-03-16T18:10:14.310Z,49.23
2019-03-16T18:12:43.013Z,46.55
2019-03-16T18:15:13.823Z,43.68
2019-03-16T18:17:42.464Z,44.53
2019-03-16T18:20:17.964Z,46.10
2019-03-16T18:22:47.849Z,46.48
2019-03-16T18:25:16.736Z,44.58
2019-03-16T18:27:45.386Z,44.35
2019-03-16T18:30:24.668Z,43.50
2019-03-16T18:32:53.306Z,44.73
2019-03-16T18:35:21.977Z,46.70
2019-03-16T18:37:50.627Z,46.53
2019-03-16T18:40:19.191Z,45.70
2019-03-16T18:42:47.828Z,47.03
2019-03-16T18:45:18.620Z,46.60
2019-03-16T18:47:47.338Z,45.78
2019-03-16T18:50:15.975Z,46.45
2019-03-16T18:52:44.633Z,47.35
2019-03-16T18:55:13.703Z,48.40
2019-03-16T18:57:42.357Z,47.45
2019-03-16T19:00:13.907Z,49.73
2019-03-16T19:02:42.566Z,49.95
2019-03-16T19:05:11.249Z,49.75
2019-03-16T19:07:39.906Z,50.88
2019-03-16T19:10:14.610Z,48.90
2019-03-16T19:12:43.681Z,49.20
2019-03-16T19:15:13.826Z,48.83
2019-03-16T19:17:42.506Z,46.90
2019-03-16T19:20:15.283Z,52.10
2019-03-16T19:22:43.934Z,50.00
2019-03-16T19:25:14.791Z,50.80
2019-03-16T19:27:43.438Z,52.27
2019-03-16T19:30:16.532Z,53.75
2019-03-16T19:32:45.174Z,50.70
2019-03-16T19:35:13.848Z,52.00
2019-03-16T19:37:42.574Z,51.88
2019-03-16T19:40:21.653Z,54.33
2019-03-16T19:42:50.266Z,53.60
2019-03-16T19:45:18.988Z,53.70
2019-03-16T19:47:47.609Z,53.63
2019-03-16T19:50:16.878Z,51.10
2019-03-16T19:52:45.524Z,52.23
2019-03-16T19:55:15.062Z,52.67
2019-03-16T19:57:43.776Z,53.87
2019-03-16T20:00:14.292Z,52.80
2019-03-16T20:02:50.186Z,48.78
2019-03-16T20:05:13.675Z,49.45
2019-03-16T20:07:42.318Z,49.55
2019-03-16T20:10:19.120Z,50.20
2019-03-16T20:12:47.799Z,50.48
2019-03-16T20:15:16.700Z,48.10
2019-03-16T20:17:45.334Z,47.20
2019-03-16T20:20:17.577Z,48.10
2019-03-16T20:25:13.997Z,46.20
2019-03-16T20:27:42.665Z,47.03
2019-03-16T20:30:15.229Z,46.70
2019-03-16T20:32:43.914Z,47.88
2019-03-16T20:35:12.478Z,46.70
2019-03-16T20:37:41.027Z,45.75
2019-03-16T20:40:17.377Z,46.50
2019-03-16T20:42:46.105Z,47.50
2019-03-16T20:45:14.876Z,49.15
2019-03-16T20:47:43.796Z,46.95
2019-03-16T20:50:14.676Z,46.88
2019-03-16T20:52:43.252Z,45.58
2019-03-16T20:55:11.947Z,51.05
2019-03-16T20:57:40.585Z,48.02
2019-03-16T21:00:14.328Z,48.05
2019-03-16T21:02:43.172Z,48.30
2019-03-16T21:05:11.953Z,48.68
2019-03-16T21:07:40.574Z,46.95
2019-03-16T21:10:10.822Z,47.15
2019-03-16T21:12:39.469Z,47.15
2019-03-16T21:15:13.474Z,47.03
2019-03-16T21:17:42.111Z,48.45
2019-03-16T21:20:14.826Z,47.10
2019-03-16T21:22:43.484Z,47.83
2019-03-16T21:25:13.715Z,45.70
2019-03-16T21:27:42.394Z,47.90
2019-03-16T21:30:19.416Z,47.78
2019-03-16T21:32:47.989Z,46.88
2019-03-16T21:35:16.643Z,48.13
2019-03-16T21:37:45.309Z,49.38
2019-03-16T21:40:15.043Z,48.50
2019-03-16T21:42:43.741Z,49.25
2019-03-16T21:45:13.497Z,48.78
2019-03-16T21:47:42.145Z,49.75
2019-03-16T21:50:12.235Z,49.23
2019-03-16T21:52:44.036Z,49.15
2019-03-16T21:55:12.414Z,49.25
2019-03-16T21:57:40.985Z,51.42
2019-03-16T22:00:13.753Z,48.95
2019-03-16T22:02:42.449Z,50.45
2019-03-16T22:05:11.013Z,50.92
2019-03-16T22:07:39.583Z,50.05
2019-03-16T22:10:15.855Z,48.83
2019-03-16T22:12:44.553Z,50.38
2019-03-16T22:15:14.504Z,49.10
2019-03-16T22:17:43.141Z,49.27
2019-03-16T22:20:18.901Z,49.40
2019-03-16T22:22:47.521Z,49.15
2019-03-16T22:25:16.233Z,50.63
2019-03-16T22:27:44.816Z,48.17
2019-03-16T22:30:15.771Z,48.98
2019-03-16T22:32:44.480Z,48.73
2019-03-16T22:35:13.131Z,50.50
2019-03-16T22:37:41.836Z,49.55
2019-03-16T22:40:14.195Z,49.98
2019-03-16T22:42:42.855Z,52.65
2019-03-16T22:45:15.004Z,52.62
2019-03-16T22:50:14.264Z,55.17
2019-03-16T22:52:42.895Z,56.87
2019-03-16T22:55:11.474Z,57.25
2019-03-16T22:57:43.203Z,57.80
2019-03-16T23:00:19.054Z,55.98
2019-03-16T23:02:47.673Z,56.77
2019-03-16T23:05:16.240Z,57.95
2019-03-16T23:07:44.876Z,58.38
2019-03-16T23:10:13.543Z,57.65
2019-03-16T23:12:42.180Z,57.83
2019-03-16T23:15:12.423Z,57.93
2019-03-16T23:17:41.093Z,57.90
2019-03-16T23:20:10.337Z,59.33
2019-03-16T23:22:39.006Z,58.17
2019-03-16T23:25:08.963Z,58.68
2019-03-16T23:27:37.677Z,58.45
2019-03-16T23:30:10.005Z,59.30
2019-03-16T23:32:38.664Z,58.40
2019-03-16T23:35:08.649Z,59.20
2019-03-16T23:37:37.303Z,58.73
2019-03-16T23:40:13.620Z,58.58
2019-03-16T23:42:42.266Z,59.15
2019-03-16T23:45:12.605Z,57.05
2019-03-16T23:47:41.244Z,58.92
2019-03-16T23:50:10.884Z,57.95
2019-03-16T23:52:39.492Z,57.83
2019-03-16T23:55:09.429Z,59.55
2019-03-16T23:57:38.139Z,57.13
